Accueil
METAR-TAF:

METAR-TAF

Aéroports :

Aupaluk, Québec, Canada

latitude: 59-17-48N, longitude: 069-35-59W, altitude: 35 m

Observation

Le bulletin a été fait il y a 15 heures et 18 minutes, à 13:00 UTC
Vent 15 kt de sud/sud-est
Température -23°C
Humidité 70%
Pression 1010 hPa
Visibilité: 24.1 km
Nuages fragmentés à une hauteur de 5800 ft
Chasse-neige basse

METAR: CYLA 231300Z 16015KT 15SM DRSN BKN058 M23/M27 A2983 RMK SC7 LAST STFD OBS/NEXT 241300UTC SLP109

Heure: 23:18 (04:18 UTC)


TAF: absent

Observations et prévisions météorologiques de plus de 4000 aéroports (messages METAR et TAF).

Les stations disponibles sont représentées par des disques jaunes et rouges sur la carte.

Passer la souris dessus pour voir le nom de la station.

Cliquer dessus pour voir les observations et prévisions météorologiques.

Pour changer de carte: cliquez sur les boutons verts avec une croix noire pour zoomer, sur le bouton vert avec un tiret pour effectuer un zoom arrière, ou sur les flèches vertes pour les cartes adjacentes.


METAR-TAF: